Time;durP1;ratioP1;P1;durP2;ratioP2;P2;SDS_P1;SDS_P2;PMS_P1;PMS_P2;Temp;Humidity;BMP_temperature;BMP_pressure;BME280_temperature;BME280_humidity;BME280_pressure;Samples;Min_cycle;Max_cycle;Signal;HPM_P1;HPM_P2
2022/12/05 00:01:43;;;;;;;16.07;8.37;;;3.20;99.90;;;6.86;57.63;97373.56;4997157;28;20131;-55
2022/12/05 00:04:13;;;;;;;23.30;11.33;;;3.20;99.90;;;6.82;57.32;97377.44;5005431;28;20046;-53
2022/12/05 00:06:43;;;;;;;21.90;9.97;;;3.20;99.90;;;6.79;57.20;97382.22;5003505;28;20046;-55
2022/12/05 00:09:12;;;;;;;16.27;9.07;;;3.10;99.90;;;6.81;57.83;97383.72;5004401;28;20054;-55
2022/12/05 00:11:43;;;;;;;20.00;9.33;;;3.20;99.90;;;6.80;56.91;97379.41;5004374;28;20046;-55
2022/12/05 00:14:12;;;;;;;26.50;12.60;;;3.20;99.90;;;6.84;57.60;97378.16;5005055;28;20052;-52
2022/12/05 00:16:42;;;;;;;19.87;10.47;;;3.20;99.90;;;6.85;57.46;97376.34;5004521;28;20249;-55
2022/12/05 00:19:14;;;;;;;21.17;10.50;;;3.20;99.90;;;6.87;56.75;97372.56;5004223;28;20046;-55
2022/12/05 00:21:42;;;;;;;17.37;9.87;;;3.20;99.90;;;6.86;56.73;97372.69;5004443;28;20060;-52
2022/12/05 00:24:13;;;;;;;22.03;11.90;;;3.20;99.90;;;6.90;56.68;97379.38;5003286;28;20038;-50
2022/12/05 00:26:42;;;;;;;28.27;14.13;;;3.30;99.90;;;6.90;56.97;97388.16;5004033;28;20267;-55
2022/12/05 00:29:10;;;;;;;29.63;13.57;;;3.20;99.90;;;6.88;57.16;97384.81;5004034;28;20046;-54
2022/12/05 00:31:38;;;;;;;30.73;13.47;;;3.20;99.90;;;6.87;56.77;97383.16;5003782;28;20375;-56
2022/12/05 00:34:06;;;;;;;17.93;9.57;;;3.20;99.90;;;6.90;57.11;97379.38;5003240;28;20038;-51
2022/12/05 00:36:35;;;;;;;19.53;8.83;;;3.20;99.90;;;6.89;56.60;97372.41;5003072;28;20074;-55
2022/12/05 00:39:08;;;;;;;20.03;9.77;;;3.20;99.90;;;6.90;56.79;97377.56;5004041;28;20056;-56
2022/12/05 00:41:37;;;;;;;16.70;10.57;;;3.20;99.90;;;6.90;56.32;97385.50;5002804;28;20046;-54
2022/12/05 00:44:05;;;;;;;18.70;9.50;;;3.20;99.90;;;6.92;56.64;97381.88;5002774;28;20046;-55
2022/12/05 00:46:34;;;;;;;16.83;8.57;;;3.20;99.90;;;6.89;56.29;97393.59;5002907;28;20049;-51
2022/12/05 00:49:05;;;;;;;15.57;8.93;;;3.20;99.90;;;6.85;56.42;97395.69;5004068;28;20042;-55
2022/12/05 00:51:40;;;;;;;16.57;8.70;;;3.20;99.90;;;6.73;56.66;97388.91;5002612;28;20050;-54
2022/12/05 00:54:12;;;;;;;16.33;8.43;;;3.10;99.90;;;6.78;56.98;97394.59;5002707;28;20042;-55
2022/12/05 00:56:40;;;;;;;14.07;7.10;;;3.10;99.90;;;6.79;56.69;97400.72;5003750;28;20054;-54
2022/12/05 00:59:16;;;;;;;16.73;9.40;;;3.20;99.90;;;6.78;57.04;97394.59;5002487;28;20046;-55
2022/12/05 01:01:47;;;;;;;14.67;8.30;;;3.20;99.90;;;6.82;57.06;97398.59;5002708;28;20376;-54
2022/12/05 01:04:22;;;;;;;16.63;7.73;;;3.20;99.90;;;6.83;56.38;97402.94;5003750;28;20042;-55
2022/12/05 01:06:54;;;;;;;16.63;8.07;;;3.20;99.90;;;6.84;56.74;97403.75;4995174;28;20046;-53
2022/12/05 01:09:22;;;;;;;12.77;7.23;;;3.20;99.90;;;6.81;56.37;97404.06;5002069;28;20403;-53
2022/12/05 01:11:51;;;;;;;13.33;7.10;;;3.10;99.90;;;6.81;56.56;97407.53;5003449;28;20244;-54
2022/12/05 01:14:22;;;;;;;15.83;7.83;;;3.20;99.90;;;6.84;57.01;97409.06;5002477;28;20134;-55
2022/12/05 01:16:53;;;;;;;12.77;7.50;;;3.20;99.90;;;6.86;57.07;97415.03;4996052;28;20053;-54
2022/12/05 01:19:25;;;;;;;16.50;8.17;;;3.20;99.90;;;6.87;56.87;97417.53;5003023;28;20046;-54
2022/12/05 01:21:54;;;;;;;16.90;7.37;;;3.20;99.90;;;6.86;56.66;97415.91;5002262;28;20344;-56
2022/12/05 01:24:24;;;;;;;17.87;8.43;;;3.20;99.90;;;6.88;56.56;97415.72;5001915;28;20045;-54
2022/12/05 01:26:52;;;;;;;14.27;7.43;;;3.20;99.90;;;6.88;56.48;97424.53;5003622;28;20368;-54
2022/12/05 01:29:23;;;;;;;15.43;7.87;;;3.20;99.90;;;6.86;56.70;97428.28;5002888;28;20052;-52
2022/12/05 01:31:52;;;;;;;16.17;8.70;;;3.20;99.90;;;6.84;57.22;97440.81;5010534;28;20239;-52
2022/12/05 01:34:20;;;;;;;14.10;7.63;;;3.20;99.90;;;6.85;56.63;97443.31;5001974;28;20053;-53
2022/12/05 01:36:48;;;;;;;13.37;7.20;;;3.20;99.90;;;6.84;56.91;97446.97;4994454;28;20056;-55
2022/12/05 01:39:17;;;;;;;13.47;7.47;;;3.20;99.90;;;6.84;57.01;97438.16;5002691;28;20057;-52
2022/12/05 01:41:48;;;;;;;13.37;6.77;;;3.20;99.90;;;6.88;56.44;97431.59;5001344;28;20046;-54
2022/12/05 01:44:16;;;;;;;15.27;7.23;;;3.20;99.90;;;6.88;56.78;97439.53;5017865;28;20370;-55
2022/12/05 01:46:47;;;;;;;16.73;7.33;;;3.20;99.90;;;6.87;56.63;97436.06;5002713;28;20042;-58
2022/12/05 01:49:35;;;;;;;11.37;7.17;;;3.20;99.90;;;6.88;57.27;97427.16;5002558;28;20042;-58
2022/12/05 01:52:25;;;;;;;13.90;7.53;;;3.20;99.90;;;6.87;56.85;97430.78;5011545;28;20046;-59
2022/12/05 01:54:58;;;;;;;13.43;6.63;;;3.30;99.90;;;6.92;56.76;97434.81;4993610;28;20050;-59
2022/12/05 01:57:27;;;;;;;14.07;8.50;;;3.20;99.90;;;6.93;56.44;97432.03;5001622;28;20109;-59
2022/12/05 02:00:04;;;;;;;12.60;7.30;;;3.20;99.90;;;6.90;56.75;97435.78;5001029;28;20052;-59
2022/12/05 02:02:42;;;;;;;15.13;8.10;;;3.20;99.90;;;6.90;57.29;97441.09;5002065;28;20056;-59
2022/12/05 02:05:22;;;;;;;14.30;6.93;;;3.20;99.90;;;6.87;57.28;97437.88;5017486;28;20042;-59
2022/12/05 02:07:51;;;;;;;14.47;7.17;;;3.20;99.90;;;6.90;57.03;97456.13;4993935;28;20049;-59
2022/12/05 02:10:20;;;;;;;14.17;7.80;;;3.20;99.90;;;6.88;57.11;97455.41;5002120;28;20049;-59
2022/12/05 02:12:50;;;;;;;14.37;7.70;;;3.20;99.90;;;6.85;56.90;97461.03;5002527;28;20049;-59
2022/12/05 02:15:59;;;;;;;14.47;7.13;;;3.20;99.90;;;6.83;57.11;97452.38;5001444;28;20057;-59
2022/12/05 02:19:04;;;;;;;14.03;7.27;;;3.20;99.90;;;6.84;57.26;97457.53;4981371;28;20058;-59
2022/12/05 02:21:40;;;;;;;12.83;7.43;;;3.20;99.90;;;6.84;57.80;97456.69;5002302;28;20054;-59
2022/12/05 02:24:19;;;;;;;13.63;7.13;;;3.20;99.90;;;6.84;57.46;97461.97;5001439;28;20048;-60
2022/12/05 02:27:14;;;;;;;10.60;6.23;;;3.20;99.90;;;6.84;57.24;97469.91;5002370;28;20042;-59
2022/12/05 02:30:08;;;;;;;11.43;6.60;;;3.20;99.90;;;6.81;57.22;97468.41;5001854;28;20072;-58
2022/12/05 02:33:18;;;;;;;14.23;7.85;;;3.20;99.90;;;6.83;57.08;97470.91;5000849;28;20053;-59
2022/12/05 02:36:14;;;;;;;12.50;6.77;;;3.20;99.90;;;6.82;56.92;97467.41;5017524;28;20048;-57
2022/12/05 02:39:23;;;;;;;14.03;7.67;;;3.20;99.90;;;6.78;57.17;97481.06;5002221;28;20046;-59
2022/12/05 02:42:00;;;;;;;12.60;7.40;;;3.20;99.90;;;6.81;57.27;97481.63;4973539;28;20382;-59
2022/12/05 02:44:46;;;;;;;12.90;6.67;;;3.20;99.90;;;6.82;56.55;97493.88;5002603;28;20045;-59
2022/12/05 02:47:21;;;;;;;14.30;8.90;;;3.20;99.90;;;6.86;57.03;97507.66;5001726;28;20052;-59
2022/12/05 02:49:51;;;;;;;10.97;7.47;;;3.20;99.90;;;6.84;57.40;97509.63;5000268;28;20072;-59
2022/12/05 02:52:21;;;;;;;15.33;7.70;;;3.20;99.90;;;6.85;57.31;97504.19;5000630;28;20039;-59
2022/12/05 02:54:52;;;;;;;16.83;7.87;;;3.30;99.90;;;6.88;57.13;97503.06;5003892;28;20049;-59
2022/12/05 02:57:23;;;;;;;14.20;7.90;;;3.30;99.90;;;6.87;57.45;97489.00;5005173;28;20046;-59
2022/12/05 02:59:51;;;;;;;16.87;8.40;;;3.30;99.90;;;6.90;57.50;97486.09;5020827;28;20057;-59
2022/12/05 03:02:32;;;;;;;16.03;6.83;;;3.30;99.90;;;6.95;56.93;97500.69;5006273;28;20076;-59
2022/12/05 03:05:52;;;;;;;16.67;7.70;;;3.40;99.90;;;6.90;57.50;97507.25;5013762;28;20240;-59
2022/12/05 03:08:28;;;;;;;18.27;7.47;;;3.40;99.90;;;7.01;56.52;97513.34;5000726;28;20057;-57
2022/12/05 03:10:58;;;;;;;15.70;7.97;;;3.40;99.90;;;7.03;56.88;97520.16;5004243;28;20042;-59
2022/12/05 03:13:33;;;;;;;17.43;7.93;;;3.50;99.90;;;7.02;56.58;97518.53;5004734;28;20049;-59
2022/12/05 03:16:28;;;;;;;12.43;7.10;;;3.40;99.90;;;7.00;56.56;97504.59;5013433;28;20038;-59
2022/12/05 03:19:02;;;;;;;16.15;7.10;;;3.40;99.90;;;7.02;57.24;97510.56;5004697;28;20049;-59
2022/12/05 03:21:34;;;;;;;13.38;6.65;;;3.50;99.90;;;7.01;56.43;97500.13;5004261;28;20049;-59
2022/12/05 03:24:10;;;;;;;17.40;8.87;;;3.50;99.90;;;7.03;57.29;97487.56;5005061;28;20046;-59
2022/12/05 03:26:46;;;;;;;19.00;8.90;;;3.40;99.90;;;7.07;56.84;97481.84;5004454;28;20042;-58
2022/12/05 03:29:29;;;;;;;18.73;8.90;;;3.50;99.90;;;7.11;56.98;97482.41;5005147;28;20048;-59
2022/12/05 03:32:27;;;;;;;15.23;8.33;;;3.50;99.90;;;7.10;57.25;97467.50;4998291;28;20052;-60
2022/12/05 03:35:22;;;;;;;14.07;7.30;;;3.60;99.90;;;7.13;56.52;97466.38;4997693;28;20060;-60
2022/12/05 03:38:02;;;;;;;14.40;7.82;;;3.60;99.90;;;7.16;56.24;97488.09;5005143;28;20054;-59
2022/12/05 03:40:45;;;;;;;17.83;9.13;;;3.50;99.90;;;7.14;56.32;97491.88;5005254;28;20046;-59
2022/12/05 03:43:35;;;;;;;14.33;8.10;;;3.50;99.90;;;7.13;56.38;97492.84;5004286;28;20042;-59
2022/12/05 03:46:30;;;;;;;18.90;7.93;;;3.50;99.90;;;7.16;56.41;97495.22;4998345;28;20293;-59
2022/12/05 03:49:22;;;;;;;19.73;9.73;;;3.50;99.90;;;7.14;56.70;97492.72;5003982;28;20046;-58
2022/12/05 03:52:19;;;;;;;17.47;9.13;;;3.50;99.90;;;7.19;56.86;97493.13;5005136;28;20225;-59
2022/12/05 03:55:07;;;;;;;18.23;7.90;;;3.50;99.90;;;7.19;56.66;97495.78;5000374;28;20046;-59
2022/12/05 03:58:13;;;;;;;20.70;8.13;;;3.60;99.90;;;7.14;56.68;97495.34;5003785;28;20341;-60
2022/12/05 04:00:49;;;;;;;18.57;9.83;;;3.70;99.90;;;7.16;57.27;97496.06;5004687;28;20352;-60
2022/12/05 04:03:25;;;;;;;14.80;8.27;;;3.60;99.90;;;7.19;57.01;97503.72;5003858;28;20370;-59
2022/12/05 04:06:00;;;;;;;18.40;9.60;;;3.60;99.90;;;7.21;56.57;97498.25;5002680;28;20345;-58
2022/12/05 04:08:45;;;;;;;18.00;9.20;;;3.60;99.90;;;7.25;56.70;97502.28;5003238;28;20080;-59
2022/12/05 04:11:22;;;;;;;16.67;8.47;;;3.70;99.90;;;7.31;56.57;97507.03;5012521;28;20084;-58
2022/12/05 04:13:55;;;;;;;18.17;10.30;;;3.70;99.90;;;7.33;56.51;97501.56;5003417;28;20050;-59
2022/12/05 04:23:05;;;;;;;14.87;9.73;;;3.80;99.90;;;7.39;56.25;97504.50;4990553;28;20237;-59
2022/12/05 04:26:03;;;;;;;21.17;9.03;;;3.80;99.90;;;7.38;56.61;97501.97;5002865;28;20062;-59
2022/12/05 04:28:35;;;;;;;22.43;10.03;;;3.80;99.90;;;7.39;57.10;97504.50;4996757;28;20054;-59
2022/12/05 04:31:24;;;;;;;19.20;9.70;;;3.80;99.90;;;7.39;56.77;97514.25;5004140;28;20053;-59
2022/12/05 04:34:06;;;;;;;17.57;8.70;;;3.70;99.90;;;7.36;56.40;97522.47;5003035;28;20056;-58
2022/12/05 04:36:45;;;;;;;17.67;8.83;;;3.70;99.90;;;7.38;56.78;97523.16;5004795;28;20050;-59
2022/12/05 04:39:34;;;;;;;19.43;9.33;;;3.70;99.90;;;7.36;56.22;97527.78;5003776;28;20048;-60
2022/12/05 04:42:08;;;;;;;15.50;7.77;;;3.70;99.90;;;7.39;56.39;97522.19;5004100;28;20046;-59
2022/12/05 04:44:43;;;;;;;17.30;9.17;;;3.70;99.90;;;7.39;56.70;97536.28;5002690;28;20528;-59
2022/12/05 04:47:13;;;;;;;20.03;9.83;;;3.70;99.90;;;7.36;56.47;97533.06;5004081;28;20238;-59
2022/12/05 04:49:43;;;;;;;22.17;11.20;;;3.70;99.90;;;7.34;56.76;97527.91;5002453;28;20121;-60
2022/12/05 04:52:17;;;;;;;21.93;10.60;;;3.70;99.90;;;7.38;56.32;97533.75;5003013;28;20038;-59
2022/12/05 04:54:51;;;;;;;22.30;10.87;;;3.70;99.90;;;7.35;56.91;97526.09;5003883;28;20046;-59
2022/12/05 04:57:43;;;;;;;20.25;10.40;;;3.60;99.90;;;7.36;56.77;97528.59;5003102;28;20057;-59
2022/12/05 05:00:12;;;;;;;24.10;10.53;;;3.70;99.90;;;7.40;57.16;97535.28;4997234;28;20042;-59
2022/12/05 05:02:50;;;;;;;21.87;10.23;;;3.80;99.90;;;7.39;57.01;97525.69;5003636;28;20353;-59
2022/12/05 05:05:19;;;;;;;21.63;9.80;;;3.80;99.90;;;7.44;56.69;97519.94;5002434;28;20048;-58
2022/12/05 05:07:53;;;;;;;21.03;10.00;;;3.80;99.90;;;7.48;57.26;97516.88;5002498;28;20329;-59
2022/12/05 05:10:53;;;;;;;22.23;10.55;;;3.90;99.90;;;7.46;57.28;97520.63;5003069;28;20068;-59
2022/12/05 05:13:21;;;;;;;16.93;9.23;;;3.90;99.90;;;7.53;56.54;97526.19;4997610;28;20038;-59
2022/12/05 05:15:49;;;;;;;17.67;8.40;;;3.90;99.90;;;7.52;56.46;97535.09;5002721;28;20064;-59
2022/12/05 05:18:17;;;;;;;19.83;8.57;;;3.90;99.90;;;7.53;57.22;97555.34;5003401;28;20049;-60
2022/12/05 05:20:45;;;;;;;19.67;10.60;;;3.90;99.90;;;7.52;56.69;97546.53;5002946;28;20362;-59
2022/12/05 05:23:13;;;;;;;15.33;8.03;;;3.90;99.90;;;7.54;57.25;97546.41;5002145;28;20251;-59
2022/12/05 05:25:41;;;;;;;18.97;10.87;;;3.90;99.90;;;7.58;56.69;97550.41;5002152;28;20038;-59
2022/12/05 05:28:08;;;;;;;19.03;11.10;;;4.00;99.90;;;7.60;56.59;97548.47;5002961;28;20045;-59
2022/12/05 05:30:36;;;;;;;20.13;10.23;;;4.00;99.90;;;7.58;57.09;97545.97;5002727;28;20045;-59
2022/12/05 05:33:04;;;;;;;20.83;10.23;;;3.90;99.90;;;7.56;56.69;97547.09;5003691;28;20046;-59
2022/12/05 05:35:36;;;;;;;19.77;10.03;;;3.90;99.90;;;7.55;56.90;97545.44;5003224;28;20052;-59
2022/12/05 05:38:04;;;;;;;20.83;10.27;;;3.90;99.90;;;7.55;56.33;97553.38;5003332;28;20050;-60
2022/12/05 05:40:36;;;;;;;21.13;10.53;;;3.90;99.90;;;7.54;56.81;97552.56;5001806;28;20076;-60
2022/12/05 05:43:04;;;;;;;22.07;11.00;;;3.90;99.90;;;7.54;57.42;97557.00;4994278;28;20042;-60
2022/12/05 05:45:32;;;;;;;24.03;11.70;;;3.90;99.90;;;7.56;56.75;97565.63;5002966;28;20053;-59
2022/12/05 05:47:59;;;;;;;28.90;14.83;;;3.90;99.90;;;7.55;56.88;97569.28;5002796;28;20042;-59
2022/12/05 05:50:28;;;;;;;47.83;19.57;;;3.90;99.90;;;7.58;57.26;97567.16;5001365;28;20049;-59
2022/12/05 05:52:55;;;;;;;64.97;28.37;;;4.00;99.90;;;7.59;56.92;97566.19;5001673;28;20245;-58
2022/12/05 05:55:23;;;;;;;87.57;35.90;;;4.00;99.90;;;7.61;57.45;97563.38;5002052;28;20042;-59
2022/12/05 05:57:51;;;;;;;66.63;28.87;;;4.00;99.90;;;7.62;57.17;97568.56;5002750;28;20367;-59
2022/12/05 06:00:19;;;;;;;76.63;31.33;;;4.00;99.90;;;7.62;56.98;97571.19;5017291;28;20056;-60
2022/12/05 06:02:47;;;;;;;49.13;19.70;;;4.00;99.90;;;7.62;56.71;97581.78;5002646;28;20286;-58
2022/12/05 06:05:15;;;;;;;77.13;30.87;;;4.10;99.90;;;7.62;57.08;97581.78;5002497;28;20050;-59
2022/12/05 06:07:42;;;;;;;83.07;32.77;;;4.00;99.90;;;7.61;57.01;97582.75;5002574;28;20046;-60
2022/12/05 06:10:10;;;;;;;89.30;34.63;;;4.10;99.90;;;7.64;56.80;97581.66;5016929;28;20046;-59
2022/12/05 06:12:38;;;;;;;52.33;22.10;;;4.10;99.90;;;7.64;57.23;97579.84;5002436;28;20042;-58
2022/12/05 06:15:07;;;;;;;67.07;25.77;;;4.10;99.90;;;7.65;56.87;97580.66;5009777;28;20046;-58
2022/12/05 06:17:35;;;;;;;42.37;18.97;;;4.20;99.90;;;7.65;56.74;97583.31;5001459;28;20345;-59
2022/12/05 06:20:05;;;;;;;33.97;17.67;;;4.10;99.90;;;7.68;56.96;97573.25;5000892;28;20038;-59
2022/12/05 06:22:33;;;;;;;26.77;13.60;;;4.10;99.90;;;7.65;56.95;97565.59;5002554;28;20046;-60
2022/12/05 06:25:01;;;;;;;23.67;12.50;;;4.00;99.90;;;7.66;56.79;97571.75;5001349;28;20240;-60
2022/12/05 06:27:30;;;;;;;26.30;11.50;;;4.00;99.90;;;7.67;56.42;97578.72;5001339;28;20038;-59
2022/12/05 06:29:58;;;;;;;39.83;16.70;;;4.00;99.90;;;7.68;56.60;97588.34;5008285;28;20072;-61
2022/12/05 06:32:28;;;;;;;95.90;39.93;;;4.10;99.90;;;7.66;56.78;97585.00;5008285;28;20054;-59
2022/12/05 06:34:56;;;;;;;107.07;40.27;;;4.10;99.90;;;7.66;56.83;97574.41;5007784;28;20053;-59
2022/12/05 06:37:24;;;;;;;45.30;19.57;;;4.10;99.90;;;7.68;56.88;97580.38;5008986;28;20050;-59
2022/12/05 06:39:52;;;;;;;38.57;17.77;;;4.10;99.90;;;7.71;57.32;97588.03;5007125;28;20281;-60
2022/12/05 06:42:21;;;;;;;36.33;19.33;;;4.20;99.90;;;7.73;57.03;97603.78;5008913;28;20046;-59
2022/12/05 06:44:49;;;;;;;27.73;13.33;;;4.20;99.90;;;7.71;56.61;97611.88;5008614;28;20072;-60
2022/12/05 06:47:16;;;;;;;28.67;13.43;;;4.10;99.90;;;7.71;56.69;97617.19;5008762;28;20042;-59
2022/12/05 06:49:44;;;;;;;33.37;17.60;;;4.10;99.90;;;7.70;57.20;97620.81;5008284;28;20042;-56
2022/12/05 06:52:12;;;;;;;47.70;26.80;;;4.10;99.90;;;7.71;56.91;97629.59;5008771;28;20038;-54
2022/12/05 06:54:40;;;;;;;25.07;14.27;;;4.10;99.90;;;7.71;56.86;97632.25;5005134;28;20245;-54
2022/12/05 06:57:08;;;;;;;26.03;13.60;;;4.10;99.90;;;7.68;57.13;97626.25;5008438;28;20240;-55
2022/12/05 06:59:36;;;;;;;19.70;11.17;;;4.10;99.90;;;7.71;57.26;97630.44;5008621;28;20056;-53
2022/12/05 07:02:06;;;;;;;15.10;9.03;;;4.10;99.90;;;7.69;57.10;97627.91;5009132;28;20053;-52
2022/12/05 07:04:35;;;;;;;20.23;10.27;;;4.10;99.90;;;7.68;57.09;97633.38;5007756;28;20085;-54
2022/12/05 07:07:03;;;;;;;18.53;10.90;;;4.10;99.90;;;7.68;56.83;97631.56;5007490;28;20120;-55
2022/12/05 07:09:50;;;;;;;23.07;10.13;;;4.10;99.90;;;7.71;57.12;97629.59;5023465;28;20056;-54
2022/12/05 07:12:18;;;;;;;19.17;10.50;;;4.20;99.90;;;7.70;57.17;97639.38;5002345;28;20042;-52
2022/12/05 07:14:46;;;;;;;22.00;9.90;;;4.20;99.90;;;7.71;56.94;97640.19;5008556;28;20046;-54
2022/12/05 07:17:18;;;;;;;18.83;10.97;;;4.20;99.90;;;7.72;56.79;97641.88;5007685;28;20263;-54
2022/12/05 07:19:51;;;;;;;27.73;11.47;;;4.20;99.90;;;7.74;56.69;97632.81;5008213;28;20287;-53
2022/12/05 07:22:22;;;;;;;46.50;17.97;;;4.20;99.90;;;7.77;56.80;97634.31;5008631;28;20042;-53
2022/12/05 07:24:53;;;;;;;21.27;11.10;;;4.20;99.90;;;7.81;56.95;97625.09;5008255;28;20057;-56
2022/12/05 07:27:21;;;;;;;23.83;12.07;;;4.30;99.90;;;7.81;57.01;97623.31;5008444;28;20053;-55
2022/12/05 07:29:55;;;;;;;34.08;16.35;;;4.20;99.90;;;7.84;57.06;97633.59;5015162;28;20050;-53
2022/12/05 07:32:23;;;;;;;40.10;17.83;;;4.30;99.90;;;7.82;56.62;97640.03;5007100;28;20056;-53
2022/12/05 07:34:52;;;;;;;35.13;16.03;;;4.30;99.90;;;7.82;57.13;97646.16;5008253;28;20039;-55
2022/12/05 07:37:22;;;;;;;29.00;13.30;;;4.20;99.90;;;7.82;56.67;97648.81;5008669;28;20038;-54
2022/12/05 07:39:52;;;;;;;27.27;14.47;;;4.20;99.90;;;7.83;56.57;97653.16;5006196;28;20234;-51
2022/12/05 07:42:20;;;;;;;28.50;12.97;;;4.20;99.90;;;7.81;56.81;97652.47;5004856;28;20046;-52
2022/12/05 07:44:47;;;;;;;19.43;11.23;;;4.10;99.90;;;7.80;56.99;97664.03;4987885;28;20050;-50
2022/12/05 07:47:15;;;;;;;24.53;11.60;;;4.20;99.90;;;7.81;56.42;97660.41;5005071;28;20048;-55
2022/12/05 07:49:43;;;;;;;20.73;11.77;;;4.20;99.90;;;7.81;56.68;97667.50;5003400;28;20050;-52
2022/12/05 07:52:11;;;;;;;25.73;13.53;;;4.20;99.90;;;7.81;56.86;97663.06;5004073;28;20044;-54
2022/12/05 07:54:39;;;;;;;30.37;16.63;;;4.20;99.90;;;7.82;56.71;97659.41;5003971;28;20046;-52
2022/12/05 07:57:07;;;;;;;32.70;16.90;;;4.20;99.90;;;7.85;56.59;97659.16;5004289;28;20048;-53
2022/12/05 07:59:34;;;;;;;35.47;17.43;;;4.30;99.90;;;7.87;56.98;97658.97;5003359;28;20046;-53
2022/12/05 08:02:02;;;;;;;30.23;14.40;;;4.30;99.90;;;7.89;56.88;97660.53;5004905;28;20050;-54
2022/12/05 08:04:30;;;;;;;24.60;12.87;;;4.30;99.90;;;7.92;56.64;97658.56;5004709;28;20050;-56
2022/12/05 08:06:58;;;;;;;32.10;13.20;;;4.30;99.90;;;7.93;56.91;97658.44;5004662;28;20042;-55
2022/12/05 08:09:26;;;;;;;30.17;13.00;;;4.40;99.90;;;7.96;56.71;97663.41;5003266;28;20348;-54
2022/12/05 08:11:54;;;;;;;17.70;10.47;;;4.40;99.90;;;7.97;56.68;97677.50;5004635;28;20046;-59
2022/12/05 08:14:21;;;;;;;27.63;12.27;;;4.40;99.90;;;7.96;56.97;97676.69;5003814;28;20046;-59
2022/12/05 08:16:49;;;;;;;20.67;11.53;;;4.40;99.90;;;7.98;57.33;97681.84;5003317;28;20050;-59
2022/12/05 08:19:17;;;;;;;19.57;11.30;;;4.40;99.90;;;7.97;57.39;97675.72;5004041;28;20054;-59
2022/12/05 08:21:46;;;;;;;15.63;9.27;;;4.40;99.90;;;8.00;57.38;97677.22;5004441;28;20046;-60
2022/12/05 08:24:14;;;;;;;16.37;9.20;;;4.40;99.90;;;8.04;57.35;97683.91;5004478;28;20267;-59
2022/12/05 08:26:42;;;;;;;23.33;11.83;;;4.50;99.90;;;8.03;56.64;97676.97;5004373;28;20344;-59
2022/12/05 08:29:13;;;;;;;19.40;11.13;;;4.40;99.90;;;8.01;56.90;97665.66;5004032;28;20045;-59
2022/12/05 08:31:46;;;;;;;19.73;9.83;;;4.40;99.90;;;8.00;56.88;97667.44;5004229;28;20344;-59
2022/12/05 08:34:16;;;;;;;16.60;8.80;;;4.30;99.90;;;8.04;56.61;97684.75;4996643;28;20050;-59
2022/12/05 08:36:45;;;;;;;28.93;13.17;;;4.40;99.90;;;8.08;57.01;97690.59;5003346;28;20257;-59
2022/12/05 08:39:16;;;;;;;53.97;25.37;;;4.50;99.90;;;8.13;57.06;97700.78;4995114;28;20050;-59
2022/12/05 08:41:46;;;;;;;53.27;27.47;;;4.60;99.90;;;8.16;56.94;97705.78;5003452;28;20054;-60
2022/12/05 08:44:15;;;;;;;30.23;16.13;;;4.60;99.90;;;8.17;56.78;97710.13;4995456;28;20045;-59
2022/12/05 08:46:47;;;;;;;30.03;15.40;;;4.60;99.90;;;8.18;56.87;97706.47;5004383;28;20057;-59
2022/12/05 08:49:16;;;;;;;25.27;13.27;;;4.60;99.90;;;8.17;56.89;97713.59;4995088;28;20353;-60
2022/12/05 08:51:44;;;;;;;22.43;12.80;;;4.60;99.90;;;8.17;56.94;97716.25;5002589;28;20248;-59
2022/12/05 08:54:12;;;;;;;20.13;11.97;;;4.60;99.90;;;8.19;57.37;97721.41;4995908;28;20048;-59
2022/12/05 08:56:40;;;;;;;21.53;11.40;;;4.60;99.90;;;8.20;57.18;97723.06;5003184;28;20042;-59
2022/12/05 08:59:08;;;;;;;25.20;14.67;;;4.60;99.90;;;8.24;57.02;97732.44;5003726;28;20038;-59
2022/12/05 09:01:37;;;;;;;28.37;14.27;;;4.60;99.90;;;8.26;57.41;97728.66;5003962;28;20058;-59
2022/12/05 09:04:07;;;;;;;39.87;19.57;;;4.70;99.90;;;8.28;57.38;97737.31;5002620;28;20229;-59
2022/12/05 09:06:35;;;;;;;23.47;13.50;;;4.70;99.90;;;8.30;56.97;97739.81;4986074;28;20057;-60
2022/12/05 09:09:07;;;;;;;19.10;9.90;;;4.80;99.90;;;8.32;57.30;97731.69;5002356;28;20042;-60
2022/12/05 09:11:40;;;;;;;16.93;9.80;;;4.70;99.90;;;8.32;56.93;97735.22;5002541;28;20046;-59
2022/12/05 09:14:08;;;;;;;13.27;7.43;;;4.70;99.90;;;8.28;57.15;97733.81;5002482;28;20060;-59
2022/12/05 09:16:37;;;;;;;12.83;7.77;;;4.60;99.90;;;8.16;57.31;97730.50;5002489;28;20050;-59
2022/12/05 09:19:22;;;;;;;19.40;11.40;;;4.50;99.90;;;8.11;57.17;97730.09;5002335;28;20072;-60
2022/12/05 09:21:50;;;;;;;32.05;15.85;;;4.40;99.90;;;8.09;56.86;97735.53;5002150;28;20064;-60
2022/12/05 09:24:18;;;;;;;34.13;17.93;;;4.40;99.90;;;8.02;57.13;97752.16;5002362;28;20068;-60
2022/12/05 09:26:46;;;;;;;18.47;9.13;;;4.30;99.90;;;7.85;57.78;97748.41;5003701;28;20264;-59
2022/12/05 09:29:14;;;;;;;15.03;8.10;;;4.30;99.90;;;7.85;57.37;97749.28;5002866;28;20042;-60
2022/12/05 09:31:50;;;;;;;26.50;14.97;;;4.30;99.90;;;7.93;57.65;97759.16;5002284;28;20060;-59
2022/12/05 09:34:18;;;;;;;27.88;11.07;;;4.40;99.90;;;7.78;57.83;97763.22;5002215;28;20171;-60
2022/12/05 09:36:50;;;;;;;16.20;9.03;;;4.30;99.90;;;7.85;57.38;97764.31;5003209;28;20352;-60
2022/12/05 09:39:25;;;;;;;15.10;9.80;;;4.30;99.90;;;7.91;57.75;97769.06;5017516;28;20050;-60
2022/12/05 09:42:04;;;;;;;14.83;8.53;;;4.40;99.90;;;7.95;56.99;97762.50;5002885;28;20056;-60
2022/12/05 09:45:02;;;;;;;14.37;8.40;;;4.40;99.90;;;8.01;57.30;97761.94;5003155;28;20068;-60
2022/12/05 09:47:48;;;;;;;15.13;9.20;;;4.50;99.90;;;8.13;57.82;97761.78;4995925;28;20054;-60
2022/12/05 09:50:32;;;;;;;14.00;8.10;;;4.60;99.90;;;8.21;57.08;97768.03;4994780;28;20042;-59
2022/12/05 09:53:31;;;;;;;16.08;10.32;;;4.70;99.90;;;8.30;57.22;97766.34;5002920;28;20042;-59
2022/12/05 09:56:08;;;;;;;14.07;8.67;;;4.80;99.90;;;8.37;57.26;97769.25;4999232;28;20368;-60
2022/12/05 09:58:51;;;;;;;13.80;8.63;;;4.90;99.90;;;8.43;57.36;97766.03;5002951;28;20354;-59
2022/12/05 10:01:39;;;;;;;13.23;8.20;;;5.00;99.90;;;8.48;57.37;97761.97;4994894;28;20345;-60
2022/12/05 10:04:47;;;;;;;44.20;20.47;;;5.00;99.90;;;8.52;57.37;97765.19;5002037;28;20057;-59
2022/12/05 10:07:42;;;;;;;19.90;10.53;;;5.10;99.90;;;8.51;57.20;97767.97;5002564;28;20042;-60
2022/12/05 10:10:25;;;;;;;16.13;9.40;;;5.00;99.90;;;8.54;56.92;97771.19;5001232;28;20050;-59
2022/12/05 10:13:19;;;;;;;11.40;7.67;;;5.00;99.90;;;8.52;57.10;97765.19;5002750;28;20217;-54
2022/12/05 10:15:55;;;;;;;14.68;7.90;;;5.00;99.90;;;8.59;56.90;97774.25;4997611;28;20364;-54
2022/12/05 10:18:45;;;;;;;12.80;7.70;;;5.00;99.90;;;8.56;56.71;97773.69;4994744;28;20046;-54
2022/12/05 10:21:52;;;;;;;14.53;8.43;;;5.00;99.90;;;8.58;57.06;97774.38;5001105;28;20054;-55
2022/12/05 10:24:36;;;;;;;14.07;6.80;;;5.00;99.90;;;8.60;56.99;97775.91;5001515;28;20052;-54
2022/12/05 10:27:09;;;;;;;12.73;8.60;;;5.10;99.90;;;8.65;56.84;97775.47;5000965;28;20060;-53
2022/12/05 10:29:52;;;;;;;29.63;18.52;;;5.10;99.90;;;8.66;57.13;97775.31;5002023;28;20046;-54
2022/12/05 10:32:35;;;;;;;14.87;9.90;;;5.10;99.90;;;8.69;57.08;97776.03;4994892;28;20052;-53
2022/12/05 10:35:20;;;;;;;13.70;9.07;;;5.10;99.90;;;8.71;56.77;97766.94;5001252;28;20370;-55
2022/12/05 10:37:59;;;;;;;11.43;7.23;;;5.20;99.90;;;8.73;56.75;97761.47;5001759;28;20054;-55
2022/12/05 10:40:36;;;;;;;21.17;11.20;;;5.20;99.90;;;8.76;56.60;97767.34;5000898;28;20050;-52
2022/12/05 10:43:07;;;;;;;15.00;9.07;;;5.20;99.90;;;8.68;56.66;97764.56;5001073;28;20046;-52
2022/12/05 10:45:46;;;;;;;14.10;8.03;;;5.10;99.90;;;8.69;56.80;97755.63;5002274;28;20054;-55
2022/12/05 10:48:18;;;;;;;12.57;7.67;;;5.10;99.90;;;8.71;56.91;97755.47;5001120;28;20061;-55
2022/12/05 10:50:54;;;;;;;15.23;8.40;;;5.10;99.90;;;8.69;56.86;97755.63;5000894;28;20050;-51
2022/12/05 10:53:48;;;;;;;23.07;12.67;;;5.10;99.90;;;8.70;56.83;97754.63;5001233;28;20038;-55
2022/12/05 10:56:44;;;;;;;14.70;9.30;;;5.10;99.90;;;8.73;56.73;97749.03;5002270;28;20048;-54
2022/12/05 10:59:24;;;;;;;29.03;13.33;;;5.20;99.90;;;8.70;56.90;97746.66;5002087;28;20049;-55
2022/12/05 11:01:56;;;;;;;17.40;10.53;;;5.20;99.90;;;8.75;56.95;97743.59;5000493;28;20038;-53